Currently 35°F in Beaumont, California, USA
35°F
35°F / 35°F
2 mph NW
0.00"
Tuesday, January 22, 2019 12:08 AM PST

Beaumont, California Weather Summary
Last 36 Hours

Temperature Winds Hourly Humidity Dewpoint
Time Report Norm Report Norm Max Gusts Precip. Rpt. Norm Rpt. Norm Pressure
1Tue 12:08 AM  35.1°F  50°F  2 mph NW  4 mph  5 mph  0.00"  73%  50%  27°F  32°F  30.06"
2Tue 12:00 AM  35.1°F  50°F  3 mph NW  3 mph  7 mph  0.00"  72%  50%  27°F  31°F  30.07"
Mon 11:00 PM  35.8°F  51°F  4 mph N  4 mph  5 mph  0.00"  68%  50%  26°F  32°F  30.06"
Mon 10:00 PM  36.7°F  51°F  3 mph N  4 mph  6 mph  0.00"  65%  50%  25°F  32°F  30.05"
Mon 09:00 PM  37.6°F  51°F  2 mph NE  4 mph  12 mph  0.00"  63%  50%  26°F  32°F  30.03"
Mon 08:00 PM  39.9°F  52°F  1 mph NW  4 mph  21 mph  0.00"  56%  49%  25°F  33°F  29.99"
Mon 07:00 PM  40.8°F  52°F  9 mph W  4 mph  17 mph  0.00"  54%  48%  25°F  32°F  29.98"
Mon 06:00 PM  41.9°F  53°F  3 mph NW  4 mph  12 mph  0.00"  53%  48%  25°F  33°F  29.96"
Mon 05:00 PM  44.8°F  55°F  2 mph SE  4 mph  20 mph  0.00"  45%  46%  24°F  34°F  29.95"
Mon 04:00 PM  47.8°F  57°F  6 mph NW  5 mph  14 mph  0.00"  38%  43%  22°F  34°F  29.94"
Mon 03:00 PM  49.8°F  58°F  3 mph S  6 mph  20 mph  0.00"  44%  41%  28°F  34°F  29.91"
Mon 02:00 PM  49.5°F  59°F  6 mph W  7 mph  15 mph  0.00"  41%  42%  26°F  35°F  29.92"
Mon 01:00 PM  48.6°F  59°F  6 mph W  7 mph  20 mph  0.00"  50%  41%  30°F  34°F  29.93"
Mon 12:00 PM  47.7°F  58°F  6 mph W  8 mph  17 mph  0.00"  53%  41%  31°F  34°F  29.95"
Mon 11:00 AM  45.7°F  57°F  9 mph W  7 mph  16 mph  0.00"  59%  43%  32°F  34°F  29.97"
Mon 10:00 AM  45.0°F  56°F  3 mph SW  6 mph  13 mph  0.00"  73%  44%  36°F  33°F  29.97"
Mon 09:00 AM  43.9°F  54°F  9 mph W  4 mph  12 mph  0.00"  72%  46%  35°F  32°F  29.97"
Mon 08:00 AM  42.1°F  52°F  3 mph SW  3 mph  12 mph  0.00"  78%  47%  35°F  32°F  29.95"
Mon 07:00 AM  40.1°F  49°F  2 mph SW  3 mph  12 mph  0.00"  94%  49%  38°F  30°F  29.95"
Mon 06:00 AM  40.6°F  49°F  1 mph W  4 mph  16 mph  0.00"  91%  49%  38°F  30°F  29.93"
Mon 05:00 AM  42.4°F  49°F  3 mph W  4 mph  12 mph  0.00"  88%  49%  39°F  30°F  29.91"
Mon 04:00 AM  43.3°F  50°F  4 mph N  4 mph  10 mph  0.00"  92%  49%  41°F  31°F  29.91"
Mon 03:00 AM  44.1°F  50°F  1 mph W  3 mph  8 mph  0.00"  94%  49%  42°F  31°F  29.91"
Mon 02:00 AM  45.0°F  50°F  1 mph W  4 mph  7 mph  0.00"  94%  50%  43°F  31°F  29.91"
Mon 01:00 AM  44.6°F  50°F  calm  4 mph  3 mph  0.00"  93%  50%  43°F  31°F  29.91"
Mon 12:00 AM  44.1°F  50°F  calm  3 mph  5 mph  0.00"  89%  50%  41°F  32°F  29.90"
Sun 11:00 PM  46.8°F  51°F  2 mph NW  4 mph  6 mph  0.00"  81%  50%  41°F  32°F  29.92"
Sun 10:00 PM  48.6°F  51°F  2 mph N  4 mph  14 mph  0.00"  70%  50%  39°F  32°F  29.89"
Sun 09:00 PM  52.3°F  51°F  7 mph N  4 mph  12 mph  0.00"  60%  50%  38°F  32°F  29.91"
Sun 08:00 PM  53.4°F  52°F  3 mph N  4 mph  12 mph  0.00"  60%  50%  39°F  33°F  29.91"
Sun 07:00 PM  54.9°F  52°F  2 mph NW  4 mph  8 mph  0.00"  49%  48%  35°F  32°F  29.91"
Sun 06:00 PM  57.0°F  53°F  4 mph N  4 mph  10 mph  0.00"  40%  48%  32°F  33°F  29.91"
Sun 05:00 PM  57.0°F  55°F  3 mph NW  4 mph  9 mph  0.00"  43%  46%  34°F  33°F  29.91"
Sun 04:00 PM  58.8°F  57°F  1 mph NW  5 mph  10 mph  0.00"  41%  43%  34°F  34°F  29.91"
Sun 03:00 PM  60.4°F  58°F  4 mph W  6 mph  12 mph  0.00"  42%  42%  36°F  34°F  29.93"
Sun 02:00 PM  62.8°F  58°F  5 mph W  6 mph  16 mph  0.00"  38%  42%  36°F  34°F  29.95"
Sun 01:00 PM  64.0°F  58°F  3 mph NW  7 mph  10 mph  0.00"  32%  42%  32°F  34°F  29.95"
Sun 12:00 PM  63.3°F  58°F  4 mph W  7 mph  13 mph  0.00"  37%  42%  36°F  34°F  29.99"

  1. Current weather data. No green row appears if the current weather data is also the high or low for the current day.
  2. High temperature for the current day.
  3. Low temperature for the current day.

The Beaumont, California weather pages are a service of WeatherCurrents. Cherry Valley is located in northern Riverside County, California, a community of the northern part of Beaumont, along the Interstate 10 highway, in the San Gorgonio pass area, between the communities of Calimesa, Banning.
Copyright ©Tue Jan 22 00:20:54 PST 2019  WeatherCurrents. All rights reserved. - Submit questions and comments - Privacy Policy

This page automatically refreshes every 10 minutes.